Time;durP1;ratioP1;P1;durP2;ratioP2;P2;SDS_P1;SDS_P2;PMS_P1;PMS_P2;Temp;Humidity;BMP_temperature;BMP_pressure;BME280_temperature;BME280_humidity;BME280_pressure;Samples;Min_cycle;Max_cycle;Signal;HPM_P1;HPM_P2
2020/12/19 00:00:49;;;;;;;104.80;33.22;;;2.80;91.30;;;;;;5039173;28;20124;-66
2020/12/19 00:03:15;;;;;;;96.10;30.33;;;2.80;91.50;;;;;;5054333;28;20543;-65
2020/12/19 00:05:40;;;;;;;90.55;32.30;;;2.80;91.60;;;;;;5054311;28;20099;-66
2020/12/19 00:08:06;;;;;;;88.00;31.08;;;2.80;91.70;;;;;;5053278;28;20029;-66
2020/12/19 00:10:32;;;;;;;102.80;32.47;;;2.90;91.60;;;;;;5054112;28;20103;-66
2020/12/19 00:13:01;;;;;;;84.50;27.88;;;2.90;91.60;;;;;;5054251;28;20017;-66
2020/12/19 00:15:27;;;;;;;86.45;28.67;;;2.90;91.50;;;;;;5054062;28;20546;-66
2020/12/19 00:17:53;;;;;;;94.63;31.35;;;2.80;91.40;;;;;;5052723;28;20027;-67
2020/12/19 00:20:19;;;;;;;98.18;34.22;;;2.80;91.40;;;;;;5052761;28;20112;-67
2020/12/19 00:22:45;;;;;;;110.43;36.95;;;2.80;91.60;;;;;;5054167;28;20025;-67
2020/12/19 00:25:11;;;;;;;91.30;32.80;;;2.80;91.60;;;;;;5054184;28;20512;-67
2020/12/19 00:27:37;;;;;;;102.47;35.53;;;2.80;91.60;;;;;;5053862;28;20028;-67
2020/12/19 00:30:05;;;;;;;100.38;34.35;;;2.80;91.60;;;;;;5053851;28;20025;-67
2020/12/19 00:32:31;;;;;;;102.40;35.90;;;2.90;91.70;;;;;;5053935;28;20025;-66
2020/12/19 00:34:56;;;;;;;90.32;31.42;;;2.90;91.60;;;;;;5053614;28;20032;-65
2020/12/19 00:37:24;;;;;;;95.05;32.53;;;2.90;91.60;;;;;;5052509;28;20025;-66
2020/12/19 00:39:53;;;;;;;86.38;29.55;;;2.90;91.70;;;;;;5052433;28;20025;-66
2020/12/19 00:42:18;;;;;;;73.95;27.42;;;2.90;91.60;;;;;;5054006;28;20028;-66
2020/12/19 00:44:44;;;;;;;76.40;26.90;;;2.90;91.70;;;;;;5053531;28;20037;-66
2020/12/19 00:47:10;;;;;;;68.22;24.60;;;2.90;91.60;;;;;;5052457;28;20047;-65
2020/12/19 00:49:36;;;;;;;64.97;23.33;;;2.90;91.70;;;;;;5053378;28;20021;-66
2020/12/19 00:52:02;;;;;;;51.00;21.55;;;2.90;91.80;;;;;;5049635;28;20017;-66
2020/12/19 00:54:28;;;;;;;56.67;23.20;;;2.90;92.00;;;;;;5033889;28;20061;-67
2020/12/19 00:56:54;;;;;;;61.83;22.58;;;2.90;91.90;;;;;;5049501;28;20106;-66
2020/12/19 00:59:20;;;;;;;64.43;22.45;;;2.90;91.90;;;;;;5052046;28;20448;-66
2020/12/19 01:01:46;;;;;;;54.30;20.90;;;2.90;91.90;;;;;;5053689;28;20052;-66
2020/12/19 01:04:12;;;;;;;70.78;28.42;;;3.00;91.90;;;;;;5053230;28;20039;-66
2020/12/19 01:06:37;;;;;;;82.47;29.35;;;3.00;91.80;;;;;;5053710;28;20509;-65
2020/12/19 01:09:05;;;;;;;93.88;29.63;;;3.00;91.70;;;;;;5053486;28;20032;-66
2020/12/19 01:11:32;;;;;;;70.35;26.92;;;3.00;91.60;;;;;;5051701;28;20048;-66
2020/12/19 01:13:59;;;;;;;91.53;32.40;;;3.00;91.50;;;;;;5052014;28;20489;-66
2020/12/19 01:16:27;;;;;;;91.32;30.13;;;3.00;91.40;;;;;;5051660;28;20029;-66
2020/12/19 01:18:54;;;;;;;79.30;29.17;;;2.90;91.40;;;;;;5053099;28;20036;-65
2020/12/19 01:21:22;;;;;;;67.63;26.13;;;2.90;91.30;;;;;;5052659;28;20442;-67
2020/12/19 01:23:49;;;;;;;64.85;23.27;;;2.80;91.20;;;;;;5051238;28;20056;-66
2020/12/19 01:26:16;;;;;;;61.33;20.83;;;2.80;91.40;;;;;;5051738;28;20079;-65
2020/12/19 01:28:42;;;;;;;75.07;26.50;;;2.80;91.40;;;;;;5053187;28;20083;-65
2020/12/19 01:31:13;;;;;;;73.75;25.27;;;2.80;91.40;;;;;;5053036;28;20112;-66
2020/12/19 01:33:39;;;;;;;66.47;25.35;;;2.70;91.40;;;;;;5038189;28;20025;-65
2020/12/19 01:36:13;;;;;;;62.53;24.02;;;2.70;91.50;;;;;;5051832;28;20033;-65
2020/12/19 01:38:39;;;;;;;78.00;26.75;;;2.70;91.60;;;;;;5051391;28;20036;-66
2020/12/19 01:41:05;;;;;;;75.13;27.08;;;2.70;91.60;;;;;;5035608;28;20053;-66
2020/12/19 01:43:44;;;;;;;75.47;27.23;;;2.70;92.10;;;;;;5032786;28;20032;-67
2020/12/19 01:46:11;;;;;;;72.47;25.60;;;2.70;91.90;;;;;;5033322;28;20022;-67
2020/12/19 01:48:37;;;;;;;67.80;26.67;;;2.70;92.00;;;;;;5031655;28;20026;-66
2020/12/19 01:51:03;;;;;;;73.07;24.85;;;2.80;92.10;;;;;;5031773;28;20521;-67
2020/12/19 01:53:30;;;;;;;66.60;25.63;;;2.80;92.20;;;;;;5031329;28;20022;-67
2020/12/19 01:55:57;;;;;;;56.42;22.60;;;2.90;92.30;;;;;;5031652;28;20030;-66
2020/12/19 01:58:23;;;;;;;48.55;21.00;;;2.90;92.30;;;;;;5032790;28;21698;-67
2020/12/19 02:00:49;;;;;;;61.38;25.48;;;3.00;92.40;;;;;;5031730;28;20136;-66
2020/12/19 02:03:14;;;;;;;58.58;26.27;;;3.10;92.50;;;;;;5032606;28;20030;-67
2020/12/19 02:05:46;;;;;;;69.43;30.23;;;3.20;92.50;;;;;;5039380;28;20029;-67
2020/12/19 02:08:12;;;;;;;66.10;27.52;;;3.20;92.30;;;;;;5037986;28;20084;-67
2020/12/19 02:10:45;;;;;;;53.40;21.75;;;3.20;92.10;;;;;;5032455;28;20392;-66
2020/12/19 02:13:11;;;;;;;47.22;19.15;;;3.30;92.10;;;;;;5032767;28;20041;-66
2020/12/19 02:15:45;;;;;;;50.78;20.85;;;3.30;92.00;;;;;;5031164;28;20484;-66
2020/12/19 02:18:11;;;;;;;51.75;20.25;;;3.20;91.90;;;;;;5032849;28;20029;-66
2020/12/19 02:20:37;;;;;;;59.17;23.15;;;3.20;91.90;;;;;;5031290;28;20022;-65
2020/12/19 02:23:05;;;;;;;55.17;21.38;;;3.20;92.00;;;;;;5031358;28;20120;-66
2020/12/19 02:25:38;;;;;;;50.00;22.33;;;3.20;91.90;;;;;;5031086;28;20590;-66
2020/12/19 02:28:07;;;;;;;56.75;25.05;;;3.10;91.70;;;;;;5031639;28;20025;-66
2020/12/19 02:30:34;;;;;;;65.88;29.00;;;3.10;91.90;;;;;;5032819;28;20033;-66
2020/12/19 02:33:00;;;;;;;65.88;29.85;;;3.20;91.90;;;;;;5031585;28;20079;-66
2020/12/19 02:35:28;;;;;;;68.45;33.13;;;3.30;92.00;;;;;;5034760;28;20029;-66
2020/12/19 02:37:54;;;;;;;88.30;41.67;;;3.30;92.00;;;;;;5034564;28;20026;-67
2020/12/19 02:40:20;;;;;;;93.38;42.63;;;3.30;91.70;;;;;;5036363;28;20029;-67
2020/12/19 02:42:46;;;;;;;92.20;40.35;;;3.20;91.70;;;;;;5048851;28;20029;-67
2020/12/19 02:45:12;;;;;;;95.38;39.60;;;3.20;91.70;;;;;;5035112;28;20396;-66
2020/12/19 02:47:38;;;;;;;83.55;38.40;;;3.20;91.70;;;;;;5036683;28;20509;-67
2020/12/19 02:50:05;;;;;;;81.32;37.03;;;3.20;91.80;;;;;;5034842;28;20130;-67
2020/12/19 02:52:31;;;;;;;79.95;36.35;;;3.20;92.00;;;;;;5035749;28;20471;-66
2020/12/19 02:54:57;;;;;;;85.30;36.03;;;3.30;92.10;;;;;;5035900;28;20025;-66
2020/12/19 02:57:23;;;;;;;77.47;32.75;;;3.30;92.00;;;;;;5034405;28;20088;-67
2020/12/19 02:59:49;;;;;;;63.97;26.90;;;3.40;92.00;;;;;;5035909;28;20053;-66
2020/12/19 03:02:15;;;;;;;46.60;21.08;;;3.40;92.00;;;;;;5034408;28;20049;-66
2020/12/19 03:04:41;;;;;;;45.13;19.40;;;3.40;91.90;;;;;;5034106;28;20068;-65
2020/12/19 03:07:07;;;;;;;47.03;19.90;;;3.40;91.90;;;;;;5034315;28;20056;-66
2020/12/19 03:09:33;;;;;;;52.25;20.10;;;3.40;91.70;;;;;;5035775;28;20034;-65
2020/12/19 03:11:58;;;;;;;53.13;20.95;;;3.40;91.70;;;;;;5035390;28;20021;-66
2020/12/19 03:14:24;;;;;;;58.67;23.83;;;3.40;91.70;;;;;;5034079;28;20026;-67
2020/12/19 03:16:50;;;;;;;62.40;26.15;;;3.40;91.70;;;;;;5034124;28;20026;-66
2020/12/19 03:19:16;;;;;;;55.50;24.10;;;3.40;91.60;;;;;;5035323;28;20017;-67
2020/12/19 03:21:41;;;;;;;62.40;24.92;;;3.40;91.80;;;;;;5033557;28;20025;-66
2020/12/19 03:24:07;;;;;;;56.65;24.63;;;3.40;91.70;;;;;;5035201;28;20095;-65
2020/12/19 03:26:33;;;;;;;47.92;20.35;;;3.40;91.70;;;;;;5035438;28;20360;-66
2020/12/19 03:28:59;;;;;;;43.75;19.35;;;3.40;91.70;;;;;;5035160;28;20029;-65
2020/12/19 03:31:25;;;;;;;50.13;19.65;;;3.50;91.80;;;;;;5034867;28;20030;-65
2020/12/19 03:33:51;;;;;;;51.78;18.08;;;3.50;91.80;;;;;;5033875;28;20033;-66
2020/12/19 03:36:16;;;;;;;45.60;18.92;;;3.50;91.80;;;;;;5033910;28;20136;-65
2020/12/19 03:38:43;;;;;;;42.72;17.50;;;3.50;91.70;;;;;;5047771;28;20025;-66
2020/12/19 03:41:09;;;;;;;40.05;17.35;;;3.60;91.70;;;;;;5035149;28;20025;-67
2020/12/19 03:43:35;;;;;;;36.08;15.75;;;3.50;91.60;;;;;;5033462;28;20029;-67
2020/12/19 03:46:00;;;;;;;40.67;17.25;;;3.50;91.60;;;;;;5046909;28;20022;-66
2020/12/19 03:48:26;;;;;;;45.30;16.52;;;3.60;91.60;;;;;;5033409;28;20026;-65
2020/12/19 03:50:52;;;;;;;48.22;18.80;;;3.60;91.70;;;;;;5046748;28;20036;-65
2020/12/19 03:53:18;;;;;;;43.75;17.40;;;3.50;91.60;;;;;;5035346;28;20056;-65
2020/12/19 03:55:44;;;;;;;43.85;17.85;;;3.50;91.50;;;;;;5034463;28;20088;-66
2020/12/19 03:58:10;;;;;;;38.30;17.83;;;3.50;91.50;;;;;;5051969;28;20025;-66
2020/12/19 04:00:36;;;;;;;47.70;18.67;;;3.50;91.50;;;;;;5043815;28;20428;-66
2020/12/19 04:03:01;;;;;;;42.90;18.48;;;3.50;91.60;;;;;;5033180;28;20029;-66
2020/12/19 04:05:27;;;;;;;44.03;18.45;;;3.50;91.50;;;;;;5034076;28;20407;-67
2020/12/19 04:07:53;;;;;;;41.55;16.95;;;3.50;91.50;;;;;;5035101;28;20026;-66
2020/12/19 04:10:19;;;;;;;37.75;17.65;;;3.50;91.50;;;;;;5048451;28;20022;-66
2020/12/19 04:12:44;;;;;;;33.72;16.20;;;3.50;91.60;;;;;;5034567;28;20025;-66
2020/12/19 04:15:11;;;;;;;43.25;17.75;;;3.60;91.70;;;;;;5034198;28;20033;-66
2020/12/19 04:17:38;;;;;;;46.03;18.75;;;3.60;91.70;;;;;;5034174;28;20463;-66
2020/12/19 04:20:08;;;;;;;39.72;19.15;;;3.60;91.70;;;;;;5033908;28;20029;-67
2020/12/19 04:22:35;;;;;;;48.33;19.27;;;3.60;91.60;;;;;;5041313;28;20075;-66
2020/12/19 04:25:01;;;;;;;42.47;19.30;;;3.60;91.60;;;;;;5039589;28;20476;-66
2020/12/19 04:27:26;;;;;;;39.40;19.40;;;3.70;91.60;;;;;;5033875;28;20030;-67
2020/12/19 04:29:52;;;;;;;48.90;22.48;;;3.70;91.50;;;;;;5032742;28;20063;-66
2020/12/19 04:32:19;;;;;;;49.90;23.08;;;3.60;91.40;;;;;;5036877;28;20021;-66
2020/12/19 04:34:45;;;;;;;51.25;23.40;;;3.60;91.40;;;;;;5043284;28;20430;-66
2020/12/19 04:37:10;;;;;;;59.72;25.85;;;3.60;91.40;;;;;;5048109;28;20071;-66
2020/12/19 04:39:36;;;;;;;67.00;28.83;;;3.60;91.60;;;;;;5032376;28;20033;-66
2020/12/19 04:42:02;;;;;;;62.58;29.45;;;3.60;91.60;;;;;;5033705;28;20047;-66
2020/12/19 04:44:28;;;;;;;67.53;29.58;;;3.70;91.60;;;;;;5040262;28;20033;-66
2020/12/19 04:46:57;;;;;;;67.85;29.30;;;3.70;91.60;;;;;;5041083;28;20057;-66
2020/12/19 04:49:23;;;;;;;62.15;28.27;;;3.80;91.60;;;;;;5033081;28;20030;-66
2020/12/19 04:51:49;;;;;;;54.55;25.95;;;3.80;91.40;;;;;;5033845;28;20045;-66
2020/12/19 04:54:15;;;;;;;60.15;27.30;;;3.80;91.40;;;;;;5046855;28;20034;-66
2020/12/19 04:56:42;;;;;;;95.80;45.28;;;3.80;91.40;;;;;;5033513;28;20021;-66
2020/12/19 04:59:08;;;;;;;51.00;25.38;;;3.80;91.50;;;;;;5032218;28;20021;-67
2020/12/19 05:01:34;;;;;;;55.40;26.13;;;3.80;91.50;;;;;;5036639;28;20411;-66
2020/12/19 05:03:59;;;;;;;57.45;23.75;;;3.80;91.30;;;;;;5044101;28;20033;-65
2020/12/19 05:06:27;;;;;;;49.00;24.42;;;3.70;91.20;;;;;;5033366;28;20025;-65
2020/12/19 05:08:55;;;;;;;57.25;26.67;;;3.70;91.20;;;;;;5032272;28;20037;-66
2020/12/19 05:11:22;;;;;;;52.97;24.60;;;3.60;91.20;;;;;;5033035;28;20021;-65
2020/12/19 05:13:48;;;;;;;50.00;23.38;;;3.60;91.40;;;;;;5039344;28;20029;-66
2020/12/19 05:16:15;;;;;;;53.92;23.38;;;3.60;91.40;;;;;;5041044;28;20452;-66
2020/12/19 05:18:42;;;;;;;57.15;24.38;;;3.60;91.50;;;;;;5033337;28;20096;-65
2020/12/19 05:21:09;;;;;;;54.30;23.13;;;3.70;91.50;;;;;;5033372;28;20108;-65
2020/12/19 05:23:36;;;;;;;49.00;21.30;;;3.60;91.30;;;;;;5032775;28;20056;-65
2020/12/19 05:26:07;;;;;;;48.08;22.10;;;3.60;91.40;;;;;;5033276;28;20021;-65
2020/12/19 05:28:34;;;;;;;65.38;31.23;;;3.70;91.60;;;;;;5031645;28;20032;-69
2020/12/19 05:31:00;;;;;;;89.93;45.17;;;3.70;91.50;;;;;;5032980;28;20029;-66
2020/12/19 05:33:32;;;;;;;99.63;49.47;;;3.60;91.30;;;;;;5033205;28;20034;-66
2020/12/19 05:35:58;;;;;;;81.13;41.00;;;3.60;91.30;;;;;;5033261;28;20017;-66
2020/12/19 05:38:27;;;;;;;64.88;32.85;;;3.60;91.30;;;;;;5033347;28;20032;-66
2020/12/19 05:40:53;;;;;;;62.78;29.23;;;3.50;91.20;;;;;;5031494;28;20029;-66
2020/12/19 05:43:19;;;;;;;54.67;25.85;;;3.40;91.20;;;;;;5031700;28;20036;-66
2020/12/19 05:45:45;;;;;;;54.20;24.70;;;3.40;91.30;;;;;;5032723;28;20104;-65
2020/12/19 05:48:10;;;;;;;50.60;22.38;;;3.40;91.30;;;;;;5031910;28;20018;-66
2020/12/19 05:50:36;;;;;;;44.30;20.63;;;3.40;91.30;;;;;;5033044;28;20025;-66
2020/12/19 05:53:03;;;;;;;42.45;19.33;;;3.40;91.50;;;;;;5031684;28;20385;-66
2020/12/19 05:55:28;;;;;;;43.58;18.73;;;3.40;91.60;;;;;;5032691;28;20021;-66
2020/12/19 05:57:57;;;;;;;42.50;17.33;;;3.40;91.60;;;;;;5046822;28;20570;-67
2020/12/19 06:00:23;;;;;;;41.03;17.48;;;3.40;91.50;;;;;;5040406;28;20029;-65
2020/12/19 06:02:51;;;;;;;41.47;19.02;;;3.40;91.50;;;;;;5039815;28;20034;-65
2020/12/19 06:05:17;;;;;;;41.00;18.48;;;3.40;91.60;;;;;;5032702;28;20076;-65
2020/12/19 06:07:47;;;;;;;44.33;17.92;;;3.50;91.70;;;;;;5044700;28;20417;-65
2020/12/19 06:10:15;;;;;;;43.60;19.02;;;3.50;91.70;;;;;;5037443;28;20027;-66
2020/12/19 06:12:51;;;;;;;41.75;18.58;;;3.50;91.70;;;;;;5035505;28;20052;-65
2020/12/19 06:15:32;;;;;;;37.72;18.30;;;3.60;91.80;;;;;;5049660;28;20033;-65
2020/12/19 06:18:04;;;;;;;40.33;17.23;;;3.60;91.80;;;;;;5036360;28;20053;-66
2020/12/19 06:20:31;;;;;;;43.47;18.55;;;3.60;91.60;;;;;;5036249;28;20072;-65
2020/12/19 06:22:58;;;;;;;39.90;17.77;;;3.60;91.70;;;;;;5035028;28;20036;-65
2020/12/19 06:25:40;;;;;;;39.97;17.23;;;3.60;91.60;;;;;;5036234;28;20029;-64
2020/12/19 06:28:08;;;;;;;41.47;17.80;;;3.60;91.50;;;;;;5036252;28;20029;-66
2020/12/19 06:30:33;;;;;;;43.10;20.25;;;3.60;91.60;;;;;;5036005;28;20498;-66
2020/12/19 06:33:12;;;;;;;43.63;19.35;;;3.60;91.70;;;;;;5046201;28;20359;-66
2020/12/19 06:35:46;;;;;;;38.35;17.80;;;3.60;91.70;;;;;;5036633;28;20021;-66
2020/12/19 06:38:12;;;;;;;39.88;18.88;;;3.60;91.80;;;;;;5035053;28;20030;-66
2020/12/19 06:40:39;;;;;;;41.28;17.48;;;3.70;91.70;;;;;;5050220;28;20079;-67
2020/12/19 06:43:14;;;;;;;41.78;18.77;;;3.70;91.50;;;;;;5036091;28;20056;-66
2020/12/19 06:45:40;;;;;;;40.85;18.42;;;3.60;91.40;;;;;;5035426;28;20099;-66
2020/12/19 06:48:32;;;;;;;44.53;20.20;;;3.60;91.40;;;;;;5035939;28;20057;-66
2020/12/19 06:51:04;;;;;;;42.75;17.58;;;3.60;91.40;;;;;;5048631;28;20063;-67
2020/12/19 06:53:32;;;;;;;41.25;17.25;;;3.60;91.40;;;;;;5035685;28;20105;-66
2020/12/19 06:55:59;;;;;;;47.63;18.05;;;3.60;91.50;;;;;;5035844;28;20021;-66
2020/12/19 06:58:43;;;;;;;44.80;19.10;;;3.60;91.40;;;;;;5035533;28;20022;-66
2020/12/19 07:01:35;;;;;;;45.88;18.08;;;3.60;91.40;;;;;;5048453;28;20103;-65
2020/12/19 07:04:00;;;;;;;46.38;18.80;;;3.60;91.50;;;;;;5034344;28;20103;-66
2020/12/19 07:06:26;;;;;;;41.00;17.88;;;3.60;91.50;;;;;;5034042;28;20471;-65
2020/12/19 07:08:52;;;;;;;42.00;17.70;;;3.60;91.70;;;;;;5035566;28;20052;-66
2020/12/19 07:11:41;;;;;;;42.17;18.58;;;3.80;92.00;;;;;;5035683;28;20476;-65
2020/12/19 07:14:15;;;;;;;44.58;19.02;;;3.80;91.70;;;;;;5037376;28;20053;-65
2020/12/19 07:16:50;;;;;;;43.47;19.00;;;3.90;91.60;;;;;;5033890;28;20487;-66
2020/12/19 07:19:23;;;;;;;48.13;22.05;;;3.80;91.40;;;;;;5042909;28;20074;-66
2020/12/19 07:21:50;;;;;;;52.72;21.92;;;3.80;91.40;;;;;;5036776;28;20052;-66
2020/12/19 07:24:16;;;;;;;43.65;17.30;;;3.70;91.50;;;;;;5033951;28;20037;-65
2020/12/19 07:26:42;;;;;;;56.20;20.63;;;3.80;91.50;;;;;;5034914;28;20025;-66
2020/12/19 07:29:18;;;;;;;46.58;17.10;;;3.80;91.50;;;;;;5035236;28;20464;-65
2020/12/19 07:31:46;;;;;;;53.88;20.30;;;3.80;91.50;;;;;;5035187;28;20030;-65
2020/12/19 07:34:12;;;;;;;51.72;19.77;;;3.80;91.30;;;;;;5035279;28;20029;-65
2020/12/19 07:36:40;;;;;;;44.92;19.50;;;3.70;91.30;;;;;;5035107;28;20025;-66
2020/12/19 07:39:07;;;;;;;53.05;19.40;;;3.80;91.40;;;;;;5033768;28;20464;-65
2020/12/19 07:41:34;;;;;;;55.08;18.75;;;3.80;91.50;;;;;;5034650;28;20056;-66
2020/12/19 07:44:17;;;;;;;50.35;19.85;;;3.80;91.40;;;;;;5033432;28;20128;-66
2020/12/19 07:46:53;;;;;;;47.78;18.52;;;3.80;91.60;;;;;;5034251;28;20471;-65
2020/12/19 07:49:32;;;;;;;50.33;17.17;;;3.80;91.50;;;;;;5034681;28;20109;-66
2020/12/19 07:52:07;;;;;;;59.13;20.88;;;3.90;91.60;;;;;;5041781;28;20029;-66
2020/12/19 07:54:33;;;;;;;51.47;18.92;;;3.90;91.60;;;;;;5037808;28;20140;-67
2020/12/19 07:57:00;;;;;;;47.47;18.05;;;3.90;91.50;;;;;;5033493;28;20072;-66
2020/12/19 07:59:27;;;;;;;55.53;19.15;;;3.90;91.50;;;;;;5033071;28;20030;-66
2020/12/19 08:02:00;;;;;;;56.65;21.42;;;3.90;91.60;;;;;;5034155;28;20049;-70
2020/12/19 08:04:26;;;;;;;55.53;19.05;;;3.90;91.50;;;;;;5041470;28;20029;-66
2020/12/19 08:06:52;;;;;;;56.13;19.88;;;4.00;91.60;;;;;;5054422;28;20044;-66
2020/12/19 08:09:21;;;;;;;63.47;21.38;;;4.00;91.70;;;;;;5042682;28;20422;-66
2020/12/19 08:11:48;;;;;;;51.88;19.67;;;4.00;91.60;;;;;;5043884;28;20052;-66
2020/12/19 08:14:18;;;;;;;52.67;18.13;;;4.00;91.50;;;;;;5054219;28;20028;-67
2020/12/19 08:16:45;;;;;;;48.90;18.20;;;4.00;91.50;;;;;;5045994;28;20030;-66
2020/12/19 08:19:16;;;;;;;48.50;18.45;;;4.00;91.40;;;;;;5051429;28;20032;-66
2020/12/19 08:21:44;;;;;;;56.47;19.55;;;3.90;91.30;;;;;;5052817;28;20055;-67
2020/12/19 08:24:11;;;;;;;61.30;20.33;;;3.90;91.30;;;;;;5052398;28;20085;-67
2020/12/19 08:26:37;;;;;;;60.35;20.63;;;3.90;91.30;;;;;;5052798;28;20021;-67
2020/12/19 08:29:08;;;;;;;59.65;19.40;;;3.80;91.50;;;;;;5052786;28;20036;-66
2020/12/19 08:31:38;;;;;;;56.40;19.40;;;3.80;91.40;;;;;;5053792;28;20029;-66
2020/12/19 08:34:08;;;;;;;57.20;19.83;;;3.80;91.40;;;;;;5053660;28;20434;-66
2020/12/19 08:36:34;;;;;;;59.10;20.83;;;3.90;91.50;;;;;;5045420;28;20049;-68
2020/12/19 08:39:13;;;;;;;59.53;19.58;;;3.80;91.50;;;;;;5047592;28;20471;-66
2020/12/19 08:41:38;;;;;;;52.55;18.10;;;3.90;91.50;;;;;;5040997;28;20074;-65
2020/12/19 08:44:05;;;;;;;58.50;20.38;;;3.90;91.40;;;;;;5053618;28;20463;-66
2020/12/19 08:46:30;;;;;;;60.45;20.77;;;3.90;91.50;;;;;;5052008;28;20021;-66
2020/12/19 08:49:03;;;;;;;57.13;18.58;;;3.90;91.50;;;;;;5040821;28;20482;-66
2020/12/19 08:51:29;;;;;;;46.20;18.02;;;3.90;91.50;;;;;;5033402;28;20021;-67
2020/12/19 08:54:10;;;;;;;44.17;17.00;;;3.90;91.50;;;;;;5033791;28;20063;-66
2020/12/19 08:56:36;;;;;;;46.35;18.13;;;3.90;91.50;;;;;;5033513;28;20049;-67
2020/12/19 08:59:02;;;;;;;48.47;17.65;;;4.00;91.50;;;;;;5032348;28;20111;-66
2020/12/19 09:01:31;;;;;;;49.67;18.98;;;4.00;91.60;;;;;;5031607;28;20041;-67
2020/12/19 09:04:09;;;;;;;48.67;17.75;;;4.00;91.60;;;;;;5032531;28;20463;-65
2020/12/19 09:06:46;;;;;;;43.47;17.20;;;4.10;91.50;;;;;;5032198;28;20025;-66
2020/12/19 09:09:26;;;;;;;46.80;18.27;;;4.00;91.40;;;;;;5032127;28;20030;-66
2020/12/19 09:12:09;;;;;;;42.90;18.30;;;4.10;91.50;;;;;;5032025;28;20025;-66
2020/12/19 09:14:35;;;;;;;42.35;17.45;;;4.10;91.50;;;;;;5033501;28;20036;-66
2020/12/19 09:17:00;;;;;;;42.47;17.70;;;4.10;91.40;;;;;;5031878;28;20460;-67
2020/12/19 09:19:26;;;;;;;43.88;17.27;;;4.10;91.50;;;;;;5033010;28;20096;-67
2020/12/19 09:21:56;;;;;;;42.85;17.48;;;4.10;91.50;;;;;;5033001;28;20104;-66
2020/12/19 09:24:23;;;;;;;40.10;17.08;;;4.20;91.50;;;;;;5033078;28;20472;-65
2020/12/19 09:26:49;;;;;;;40.42;16.27;;;4.20;91.40;;;;;;5032208;28;20024;-66
2020/12/19 09:29:16;;;;;;;40.13;17.42;;;4.20;91.50;;;;;;5040661;28;20092;-67
2020/12/19 09:31:42;;;;;;;45.53;18.60;;;4.20;91.40;;;;;;5039389;28;20029;-66
2020/12/19 09:34:08;;;;;;;41.95;17.17;;;4.30;91.40;;;;;;5031694;28;20460;-66
2020/12/19 09:36:35;;;;;;;43.20;17.75;;;4.30;91.20;;;;;;5031886;28;20025;-66
2020/12/19 09:39:00;;;;;;;40.80;18.38;;;4.30;91.10;;;;;;5031706;28;20049;-66
2020/12/19 09:41:26;;;;;;;47.58;21.20;;;4.20;91.10;;;;;;5032971;28;20464;-66
2020/12/19 09:43:52;;;;;;;47.58;19.92;;;4.20;91.10;;;;;;5034187;28;20140;-65
2020/12/19 09:46:17;;;;;;;44.70;18.40;;;4.20;91.20;;;;;;5037160;28;20018;-65
2020/12/19 09:48:43;;;;;;;42.35;17.73;;;4.30;91.30;;;;;;5036943;28;20025;-68
2020/12/19 09:51:09;;;;;;;39.22;16.25;;;4.30;91.10;;;;;;5050890;28;20022;-66
2020/12/19 09:53:36;;;;;;;33.03;15.00;;;4.30;91.10;;;;;;5036818;28;20471;-65
2020/12/19 09:56:02;;;;;;;39.38;17.17;;;4.30;91.10;;;;;;5037344;28;20419;-66
2020/12/19 09:58:28;;;;;;;35.92;16.08;;;4.30;91.10;;;;;;5036860;28;20088;-66
2020/12/19 10:00:53;;;;;;;37.28;16.23;;;4.30;91.10;;;;;;5036740;28;20077;-66
2020/12/19 10:03:19;;;;;;;40.75;18.00;;;4.30;91.10;;;;;;5036429;28;20025;-69
2020/12/19 10:05:45;;;;;;;40.45;17.17;;;4.30;91.20;;;;;;5035052;28;20442;-66
2020/12/19 10:08:11;;;;;;;38.55;16.95;;;4.40;91.40;;;;;;5036656;28;20028;-67
2020/12/19 10:10:36;;;;;;;38.17;17.27;;;4.40;91.20;;;;;;5036519;28;20056;-66
2020/12/19 10:13:02;;;;;;;38.22;18.42;;;4.50;91.20;;;;;;5035466;28;20041;-67
2020/12/19 10:15:28;;;;;;;43.92;20.10;;;4.40;91.00;;;;;;5036027;28;20467;-66
2020/12/19 10:17:54;;;;;;;41.83;19.00;;;4.40;91.00;;;;;;5036398;28;20458;-66
2020/12/19 10:20:20;;;;;;;45.40;20.35;;;4.50;91.00;;;;;;5035058;28;20034;-66
2020/12/19 10:22:48;;;;;;;49.03;19.90;;;4.50;91.30;;;;;;5036615;28;20411;-66
2020/12/19 10:25:14;;;;;;;49.35;20.35;;;4.40;90.90;;;;;;5036383;28;20045;-66
2020/12/19 10:27:40;;;;;;;45.88;20.05;;;4.40;90.90;;;;;;5043081;28;20387;-65
2020/12/19 10:30:06;;;;;;;44.08;20.65;;;4.40;91.00;;;;;;5040640;28;20025;-66
2020/12/19 10:32:32;;;;;;;45.60;20.73;;;4.50;91.00;;;;;;5041108;28;20046;-66
2020/12/19 10:35:00;;;;;;;41.58;18.55;;;4.50;90.80;;;;;;5054894;28;20025;-66
2020/12/19 10:37:27;;;;;;;42.83;20.25;;;4.50;91.00;;;;;;5037369;28;20152;-65
2020/12/19 10:39:52;;;;;;;46.42;19.52;;;4.50;90.90;;;;;;5034934;28;20025;-66
2020/12/19 10:42:18;;;;;;;45.15;19.45;;;4.50;91.00;;;;;;5035847;28;20025;-66
2020/12/19 10:44:44;;;;;;;45.38;20.17;;;4.50;90.80;;;;;;5035760;28;20112;-66
2020/12/19 10:47:09;;;;;;;48.38;21.13;;;4.50;90.80;;;;;;5035593;28;20112;-66
2020/12/19 10:49:35;;;;;;;43.20;20.33;;;4.50;90.90;;;;;;5036771;28;20360;-66
2020/12/19 10:52:06;;;;;;;39.17;18.88;;;4.60;91.20;;;;;;5055946;28;20025;-68
2020/12/19 10:54:33;;;;;;;47.80;23.40;;;4.70;91.20;;;;;;5052645;28;20071;-67
2020/12/19 10:57:00;;;;;;;43.53;19.00;;;4.70;91.00;;;;;;5035977;28;20460;-67
2020/12/19 10:59:31;;;;;;;41.17;18.20;;;4.70;90.90;;;;;;5034331;28;20029;-68
2020/12/19 11:01:58;;;;;;;36.40;17.85;;;4.80;90.90;;;;;;5040839;28;20072;-66
2020/12/19 11:04:25;;;;;;;41.70;18.30;;;4.80;90.80;;;;;;5041960;28;20115;-67
2020/12/19 11:06:51;;;;;;;38.70;17.50;;;4.70;90.60;;;;;;5053056;28;20074;-67
2020/12/19 11:09:20;;;;;;;46.50;19.50;;;4.70;90.50;;;;;;5043571;28;20502;-66
2020/12/19 11:11:50;;;;;;;40.47;16.88;;;4.70;90.50;;;;;;5034173;28;20025;-66
2020/12/19 11:14:16;;;;;;;40.80;17.65;;;4.60;90.40;;;;;;5034110;28;20037;-67
2020/12/19 11:16:42;;;;;;;39.63;18.73;;;4.60;90.50;;;;;;5033823;28;20380;-67
2020/12/19 11:19:11;;;;;;;38.83;18.13;;;4.60;90.40;;;;;;5034400;28;20026;-66
2020/12/19 11:21:46;;;;;;;41.15;18.00;;;4.50;90.30;;;;;;5035137;28;20064;-67
2020/12/19 11:24:13;;;;;;;42.78;17.73;;;4.50;90.40;;;;;;5033857;28;20038;-66
2020/12/19 11:26:40;;;;;;;42.63;19.02;;;4.50;90.30;;;;;;5034105;28;20029;-65
2020/12/19 11:29:08;;;;;;;41.80;19.27;;;4.50;90.40;;;;;;5033817;28;20478;-67
2020/12/19 11:31:34;;;;;;;41.65;18.52;;;4.40;90.50;;;;;;5034903;28;20463;-66
2020/12/19 11:34:00;;;;;;;45.83;18.60;;;4.40;90.50;;;;;;5038074;28;20036;-67
2020/12/19 11:36:26;;;;;;;44.95;19.00;;;4.40;90.40;;;;;;5044742;28;20066;-66
2020/12/19 11:38:52;;;;;;;44.20;19.05;;;4.40;90.50;;;;;;5037379;28;20025;-66
2020/12/19 11:41:27;;;;;;;38.75;17.33;;;4.40;90.40;;;;;;5045306;28;20490;-67
2020/12/19 11:43:53;;;;;;;42.85;18.45;;;4.40;90.50;;;;;;5034932;28;20454;-67
2020/12/19 11:46:19;;;;;;;43.33;18.35;;;4.40;90.60;;;;;;5042937;28;20100;-67
2020/12/19 11:48:46;;;;;;;43.38;21.10;;;4.40;90.70;;;;;;5044876;28;20152;-67
2020/12/19 11:51:12;;;;;;;42.25;19.20;;;4.40;90.90;;;;;;5034637;28;20028;-67
2020/12/19 11:53:38;;;;;;;46.78;20.30;;;4.40;90.50;;;;;;5033365;28;20112;-65
2020/12/19 11:56:04;;;;;;;52.78;19.65;;;4.30;90.40;;;;;;5033487;28;20032;-70
2020/12/19 11:58:31;;;;;;;41.05;17.80;;;4.30;90.40;;;;;;5033308;28;20535;-67
2020/12/19 12:00:57;;;;;;;44.40;18.63;;;4.20;90.30;;;;;;5034364;28;20076;-67
2020/12/19 12:03:23;;;;;;;47.08;19.85;;;4.20;90.30;;;;;;5034406;28;20033;-66
2020/12/19 12:05:49;;;;;;;48.33;20.10;;;4.20;90.40;;;;;;5032867;28;20038;-66
2020/12/19 12:08:15;;;;;;;46.38;19.70;;;4.20;90.50;;;;;;5032903;28;20029;-66
2020/12/19 12:10:43;;;;;;;46.13;20.10;;;4.20;90.50;;;;;;5033304;28;20537;-67
2020/12/19 12:13:09;;;;;;;40.42;20.17;;;4.20;90.60;;;;;;5034212;28;20113;-67
2020/12/19 12:15:35;;;;;;;48.22;20.70;;;4.20;90.50;;;;;;5032999;28;20116;-66
2020/12/19 12:18:00;;;;;;;46.85;20.75;;;4.10;90.50;;;;;;5033151;28;20030;-67
2020/12/19 12:20:26;;;;;;;45.40;19.40;;;4.10;90.70;;;;;;5046876;28;20392;-66
2020/12/19 12:22:52;;;;;;;45.53;20.42;;;4.10;90.50;;;;;;5032934;28;20490;-66
2020/12/19 12:25:18;;;;;;;40.65;19.25;;;4.00;90.60;;;;;;5032333;28;20037;-67
2020/12/19 12:27:44;;;;;;;38.22;18.35;;;4.00;90.60;;;;;;5034160;28;20018;-66
2020/12/19 12:30:10;;;;;;;43.28;21.60;;;4.10;90.70;;;;;;5046629;28;20098;-66
2020/12/19 12:32:36;;;;;;;41.67;18.95;;;4.10;90.70;;;;;;5041315;28;20028;-66
2020/12/19 12:35:03;;;;;;;44.40;19.50;;;4.10;90.70;;;;;;5053020;28;20032;-66
2020/12/19 12:37:28;;;;;;;43.30;19.77;;;4.10;90.70;;;;;;5034859;28;20017;-66